Somonauk, IL (60552)

4:23 AM CDT on September 02, 2015 (GMT -0500)
Rural--2.75 mi WSW Sandwich, IL | | Change Station
CLOSE
Current Station
Personal Weather Station
Location: Sandwich, IL
Elevation: 698 ft
Nearby Weather Stations

Elev 698 ft 41.62 °N, 88.65 °W | Updated 1 minute ago

Partly Cloudy
Partly Cloudy
69.1 °F
Feels Like 69.1 °F
N
0.0
Wind Variable Wind from WSW
Gusts 0.0 mph

Today
High -- | Low -- °F
--% Chance of Precip.
Yesterday
High -- | Low -- °F
Precip. -- in
6:21 AM 7:26 PM
Waning Gibbous, 82% visible
Pressure 30.04 in
Visibility 2.0 miles
Clouds Scattered Clouds 800 ft
Dew Point 68 °F
Humidity 95%
Rainfall 0.00 in
Snow Depth Not available.
UV 0 out of 12
Pollen 11.00 out of 12
Air Quality Not available.
Flu Activity Not available.
SPECI KARR 020913Z AUTO 00000KT 2SM BR SCT008 19/18 A3004 RMK AO2 T01890178
Pressure 30.04 in
Visibility 2.0 miles
Clouds Scattered Clouds 800 ft
Dew Point 68 °F
Humidity 95%
Rainfall 0.00 in
Snow Depth Not available.
UV 0 out of 12
Pollen 11.00 out of 12
Air Quality Not available.
Flu Activity Not available.
SPECI KARR 020913Z AUTO 00000KT 2SM BR SCT008 19/18 A3004 RMK AO2 T01890178

10-Day Weather Forecast

×

Almanac

Astronomy

Sep. 02, 2015 Rise Set
Actual Time
Civil Twilight
Nautical Twilight
Astronomical Twilight
Moon
Length of Visible Light
Length of Day
Tomorrow will be .
, % of the Moon is Illuminated

Today's Extremes

State Highs State Lows

Community

WunderPhotos

Upload Photos

1,851,730 photos uploaded!

WunderBlogs® & News

Nearby

Air Quality

  Air Quality AQ Index Pollutant
Not available.

Snow Depth

Station Depth Elevation

Earthquake Activity

City Distance Mag. Time & Date
Minimum magnitude displayed is 2.5.

Coastal Water Temperatures

Place Temperature

Stations

Nearby Weather Stations

Station Location Temp. Windchill Dew Point Humidity Wind Precip. Elev Updated Type